Time;durP1;ratioP1;P1;durP2;ratioP2;P2;SDS_P1;SDS_P2;PMS_P1;PMS_P2;Temp;Humidity;BMP_temperature;BMP_pressure;BME280_temperature;BME280_humidity;BME280_pressure;Samples;Min_cycle;Max_cycle;Signal;HPM_P1;HPM_P2
2022/07/29 00:00:05;;;;;;;;;;;;;;;28.66;35.84;100795.25;5063586;28;2004;-33
2022/07/29 00:02:31;;;;;;;;;;;;;;;28.69;35.87;100802.97;5074624;28;985;-35
2022/07/29 00:04:57;;;;;;;;;;;;;;;28.72;35.40;100795.31;5064702;28;1213;-34
2022/07/29 00:07:22;;;;;;;;;;;;;;;28.71;35.60;100793.63;5063691;28;990;-37
2022/07/29 00:09:47;;;;;;;;;;;;;;;28.71;35.75;100795.50;5072115;28;1242;-35
2022/07/29 00:12:13;;;;;;;;;;;;;;;28.77;35.26;100794.72;5067790;28;870;-34
2022/07/29 00:14:38;;;;;;;;;;;;;;;28.75;35.09;100798.63;5069961;28;953;-34
2022/07/29 00:17:03;;;;;;;;;;;;;;;28.76;35.29;100798.44;5071184;28;1096;-34
2022/07/29 00:19:29;;;;;;;;;;;;;;;28.80;35.25;100804.31;5069632;28;1967;-32
2022/07/29 00:21:54;;;;;;;;;;;;;;;28.81;35.56;100803.31;5071716;28;1116;-37
2022/07/29 00:24:19;;;;;;;;;;;;;;;28.78;35.42;100801.00;5069879;28;1063;-36
2022/07/29 00:26:44;;;;;;;;;;;;;;;28.79;35.34;100800.78;5072100;28;980;-36
2022/07/29 00:29:10;;;;;;;;;;;;;;;28.83;35.23;100796.66;5075157;28;1029;-35
2022/07/29 00:31:35;;;;;;;;;;;;;;;28.87;35.12;100799.81;5070527;28;2055;-37
2022/07/29 00:34:02;;;;;;;;;;;;;;;28.88;35.13;100808.78;5072953;28;1040;-39
2022/07/29 00:36:27;;;;;;;;;;;;;;;28.91;35.21;100803.78;5069935;28;938;-38
2022/07/29 00:38:52;;;;;;;;;;;;;;;28.87;35.24;100799.81;5065922;28;2347;-38
2022/07/29 00:41:18;;;;;;;;;;;;;;;28.91;35.21;100808.41;5072217;28;1191;-38
2022/07/29 00:43:43;;;;;;;;;;;;;;;28.90;35.04;100799.44;5068298;28;1025;-38
2022/07/29 00:46:08;;;;;;;;;;;;;;;28.89;35.18;100800.47;5070029;28;942;-34
2022/07/29 00:48:34;;;;;;;;;;;;;;;28.87;35.16;100801.69;5069051;28;907;-36
2022/07/29 00:50:59;;;;;;;;;;;;;;;28.90;34.99;100793.16;5068520;28;1000;-34
2022/07/29 00:53:24;;;;;;;;;;;;;;;28.87;35.11;100794.41;5074585;28;984;-35
2022/07/29 00:55:50;;;;;;;;;;;;;;;28.92;34.97;100797.38;5070119;28;954;-35
2022/07/29 00:58:15;;;;;;;;;;;;;;;28.92;35.07;100800.06;5066109;28;1894;-34
2022/07/29 01:00:40;;;;;;;;;;;;;;;28.88;35.07;100797.97;5068039;28;2063;-35
2022/07/29 01:03:06;;;;;;;;;;;;;;;28.91;35.02;100797.56;5072189;28;1159;-39
2022/07/29 01:05:32;;;;;;;;;;;;;;;28.92;34.85;100800.06;5065773;28;1033;-37
2022/07/29 01:07:57;;;;;;;;;;;;;;;28.67;34.90;100797.75;5063902;28;1112;-36
2022/07/29 01:10:23;;;;;;;;;;;;;;;28.66;35.90;100797.94;5058413;28;1296;-37
2022/07/29 01:12:48;;;;;;;;;;;;;;;28.71;35.91;100793.63;5067476;28;887;-35
2022/07/29 01:15:14;;;;;;;;;;;;;;;28.53;36.11;100785.94;5070358;28;1167;-35
2022/07/29 01:17:58;;;;;;;;;;;;;;;28.60;36.11;100784.16;5067768;28;989;-37
2022/07/29 01:20:41;;;;;;;;;;;;;;;28.58;36.50;100785.34;5075949;28;1186;-33
2022/07/29 01:23:06;;;;;;;;;;;;;;;28.48;36.48;100786.53;5062749;28;1032;-38
2022/07/29 01:25:41;;;;;;;;;;;;;;;28.50;36.70;100780.91;5069726;28;1033;-38
2022/07/29 01:28:25;;;;;;;;;;;;;;;28.52;36.24;100781.56;5065613;28;969;-36
2022/07/29 01:30:50;;;;;;;;;;;;;;;28.48;36.59;100780.25;5073292;28;1513;-33
2022/07/29 01:33:48;;;;;;;;;;;;;;;28.57;36.54;100783.69;5048345;28;1025;-34
2022/07/29 01:36:07;;;;;;;;;;;;;;;28.52;36.64;100786.13;5064185;28;1299;-36
2022/07/29 01:38:32;;;;;;;;;;;;;;;28.50;36.55;100777.34;5048999;28;1963;-34
2022/07/29 01:41:08;;;;;;;;;;;;;;;28.54;36.34;100784.94;5045854;28;1198;-34
2022/07/29 01:43:43;;;;;;;;;;;;;;;28.62;36.28;100783.97;5066813;28;985;-34
2022/07/29 01:46:15;;;;;;;;;;;;;;;28.55;36.68;100785.75;5073019;28;1603;-37
2022/07/29 01:48:42;;;;;;;;;;;;;;;28.57;36.45;100776.41;5048400;28;832;-37
2022/07/29 01:51:11;;;;;;;;;;;;;;;28.64;36.43;100779.19;5069062;28;981;-34
2022/07/29 01:53:56;;;;;;;;;;;;;;;28.70;36.08;100772.16;5066780;28;986;-39
2022/07/29 01:56:22;;;;;;;;;;;;;;;28.67;36.06;100775.25;5014706;28;1134;-37
2022/07/29 01:58:48;;;;;;;;;;;;;;;28.71;35.98;100773.84;5051782;28;2020;-33
2022/07/29 02:01:13;;;;;;;;;;;;;;;28.76;36.38;100771.38;5054359;28;874;-36
2022/07/29 02:03:38;;;;;;;;;;;;;;;28.81;36.32;100770.81;5045681;28;1001;-34
2022/07/29 02:06:04;;;;;;;;;;;;;;;28.66;36.44;100765.47;5057434;28;1077;-36
2022/07/29 02:08:29;;;;;;;;;;;;;;;28.75;36.09;100766.16;5075807;28;1395;-37
2022/07/29 02:10:54;;;;;;;;;;;;;;;28.69;36.57;100773.19;5050786;28;1212;-37
2022/07/29 02:13:20;;;;;;;;;;;;;;;28.70;36.16;100764.88;5048063;28;899;-38
2022/07/29 02:15:45;;;;;;;;;;;;;;;28.72;36.12;100765.53;5047830;28;1017;-37
2022/07/29 02:18:11;;;;;;;;;;;;;;;28.76;36.16;100762.44;5047977;28;1963;-37
2022/07/29 02:20:37;;;;;;;;;;;;;;;28.72;35.92;100761.97;5044244;28;1021;-33
2022/07/29 02:23:02;;;;;;;;;;;;;;;28.72;36.25;100761.97;5053967;28;1052;-38
2022/07/29 02:25:27;;;;;;;;;;;;;;;28.78;36.06;100755.78;5067701;28;887;-34
2022/07/29 02:27:53;;;;;;;;;;;;;;;28.68;36.25;100758.81;5065676;28;1465;-35
2022/07/29 02:30:18;;;;;;;;;;;;;;;28.75;35.90;100763.44;5048354;28;1152;-34
2022/07/29 02:32:43;;;;;;;;;;;;;;;28.69;36.01;100762.38;5054469;28;1128;-38
2022/07/29 02:35:09;;;;;;;;;;;;;;;28.75;36.23;100756.19;5048532;28;1014;-37
2022/07/29 02:37:35;;;;;;;;;;;;;;;28.80;35.91;100766.41;5072674;28;977;-37
2022/07/29 02:40:00;;;;;;;;;;;;;;;28.75;35.97;100768.88;5064729;28;1965;-37
2022/07/29 02:42:26;;;;;;;;;;;;;;;28.82;36.12;100772.47;5052413;28;1017;-35
2022/07/29 02:44:51;;;;;;;;;;;;;;;28.82;36.28;100775.19;5078529;28;1040;-35
2022/07/29 02:47:28;;;;;;;;;;;;;;;28.80;36.23;100775.38;5072006;28;1021;-37
2022/07/29 02:49:54;;;;;;;;;;;;;;;28.83;36.18;100775.00;5065473;28;1603;-39
2022/07/29 02:52:20;;;;;;;;;;;;;;;28.80;36.12;100774.53;5053402;28;982;-36
2022/07/29 02:54:53;;;;;;;;;;;;;;;28.82;35.99;100778.75;5076017;28;1190;-37
2022/07/29 02:57:20;;;;;;;;;;;;;;;28.83;36.01;100777.69;5067329;28;1111;-37
2022/07/29 02:59:45;;;;;;;;;;;;;;;28.87;35.74;100780.88;5048325;28;1978;-36
2022/07/29 03:02:10;;;;;;;;;;;;;;;28.82;35.99;100772.47;5044201;28;1086;-38
2022/07/29 03:04:36;;;;;;;;;;;;;;;28.85;35.95;100777.50;5067360;28;1402;-36
2022/07/29 03:07:01;;;;;;;;;;;;;;;28.87;36.00;100780.03;5054132;28;1009;-38
2022/07/29 03:09:27;;;;;;;;;;;;;;;28.80;36.03;100782.66;5071328;28;1045;-37
2022/07/29 03:11:54;;;;;;;;;;;;;;;28.81;35.96;100781.66;5075731;28;1286;-36
2022/07/29 03:14:19;;;;;;;;;;;;;;;28.80;36.02;100788.91;5056874;28;1576;-37
2022/07/29 03:16:45;;;;;;;;;;;;;;;28.73;36.17;100794.28;5071800;28;1179;-38
2022/07/29 03:19:10;;;;;;;;;;;;;;;28.73;36.52;100794.28;5060910;28;1977;-40
2022/07/29 03:21:35;;;;;;;;;;;;;;;28.90;36.28;100799.44;5069175;28;1024;-38
2022/07/29 03:24:00;;;;;;;;;;;;;;;28.90;36.22;100802.13;5062257;28;1037;-37
2022/07/29 03:26:26;;;;;;;;;;;;;;;28.90;35.99;100809.41;5068572;28;990;-38
2022/07/29 03:28:51;;;;;;;;;;;;;;;28.85;35.92;100805.44;5067571;28;1040;-39
2022/07/29 03:31:16;;;;;;;;;;;;;;;28.89;36.16;100805.03;5070285;28;1199;-35
2022/07/29 03:33:42;;;;;;;;;;;;;;;28.89;36.09;100805.88;5064413;28;1176;-40
2022/07/29 03:36:07;;;;;;;;;;;;;;;28.68;36.31;100807.53;5076231;28;1215;-39
2022/07/29 03:38:33;;;;;;;;;;;;;;;28.75;36.76;100807.59;5071667;28;1902;-36
2022/07/29 03:41:03;;;;;;;;;;;;;;;28.71;36.77;100811.75;5053296;28;977;-39
2022/07/29 03:43:30;;;;;;;;;;;;;;;28.66;37.56;100815.00;5056692;28;994;-40
2022/07/29 03:45:55;;;;;;;;;;;;;;;28.44;37.70;100816.88;5046662;28;1129;-37
2022/07/29 03:48:21;;;;;;;;;;;;;;;27.62;40.87;100818.44;5052728;28;1965;-37
2022/07/29 03:50:46;;;;;;;;;;;;;;;27.14;43.71;100821.44;5054355;28;1107;-37
2022/07/29 03:53:12;;;;;;;;;;;;;;;26.98;44.98;100817.78;5070890;28;965;-37
2022/07/29 03:55:42;;;;;;;;;;;;;;;26.94;45.98;100815.66;5063707;28;1176;-40
2022/07/29 03:58:08;;;;;;;;;;;;;;;26.74;42.76;100814.25;5058426;28;1898;-37
2022/07/29 04:00:34;;;;;;;;;;;;;;;27.41;40.49;100816.44;5048432;28;1222;-38
2022/07/29 04:02:59;;;;;;;;;;;;;;;27.96;40.51;100815.41;5046506;28;1045;-40
2022/07/29 04:05:24;;;;;;;;;;;;;;;28.13;40.23;100812.50;5071733;28;969;-38
2022/07/29 04:07:49;;;;;;;;;;;;;;;24.84;46.18;100811.78;5064275;28;989;-39
2022/07/29 04:10:18;;;;;;;;;;;;;;;22.07;47.02;100807.22;5072783;28;1096;-37
2022/07/29 04:12:44;;;;;;;;;;;;;;;20.89;46.63;100810.84;5069693;28;1230;-34
2022/07/29 04:15:09;;;;;;;;;;;;;;;20.25;46.37;100801.28;5074730;28;1028;-39
2022/07/29 04:17:35;;;;;;;;;;;;;;;19.25;44.71;100800.88;5072645;28;1163;-38
2022/07/29 04:20:00;;;;;;;;;;;;;;;18.77;45.28;100795.81;5065382;28;2740;-37
2022/07/29 04:22:25;;;;;;;;;;;;;;;18.40;44.88;100799.63;5070923;28;1100;-40
2022/07/29 04:24:50;;;;;;;;;;;;;;;18.03;44.39;100795.41;5058828;28;1088;-38
2022/07/29 04:27:16;;;;;;;;;;;;;;;16.60;46.76;100798.91;5075609;28;1143;-40
2022/07/29 04:29:41;;;;;;;;;;;;;;;16.28;49.81;100798.44;5075974;28;1139;-40
2022/07/29 04:32:06;;;;;;;;;;;;;;;17.24;53.70;100797.78;5076265;28;997;-40
2022/07/29 04:34:32;;;;;;;;;;;;;;;17.50;55.51;100796.75;5064451;28;1143;-39
2022/07/29 04:36:57;;;;;;;;;;;;;;;17.79;57.08;100798.16;5059113;28;973;-37
2022/07/29 04:39:22;;;;;;;;;;;;;;;17.91;58.51;100791.03;5065154;28;1901;-37
2022/07/29 04:41:49;;;;;;;;;;;;;;;17.97;59.44;100795.88;5071574;28;997;-40
2022/07/29 04:44:14;;;;;;;;;;;;;;;18.02;60.02;100796.34;5071584;28;1005;-41
2022/07/29 04:46:39;;;;;;;;;;;;;;;17.99;60.82;100799.25;5071866;28;1044;-38
2022/07/29 04:49:04;;;;;;;;;;;;;;;17.91;61.56;100791.88;5070484;28;1921;-39
2022/07/29 04:51:30;;;;;;;;;;;;;;;17.86;62.02;100800.22;5070448;28;1191;-40
2022/07/29 04:53:55;;;;;;;;;;;;;;;17.89;62.39;100799.13;5066955;28;1009;-38
2022/07/29 04:56:20;;;;;;;;;;;;;;;17.91;62.97;100796.34;5076069;28;1254;-37
2022/07/29 04:58:46;;;;;;;;;;;;;;;17.95;62.99;100793.31;5070485;28;1965;-38
2022/07/29 05:01:11;;;;;;;;;;;;;;;17.87;63.42;100790.41;5066374;28;1008;-40
2022/07/29 05:03:36;;;;;;;;;;;;;;;17.87;63.60;100785.09;5070248;28;1064;-40
2022/07/29 05:06:01;;;;;;;;;;;;;;;17.79;63.79;100788.34;5071616;28;1128;-39
2022/07/29 05:08:27;;;;;;;;;;;;;;;17.80;64.29;100787.38;5069590;28;1162;-39
2022/07/29 05:10:52;;;;;;;;;;;;;;;17.91;64.15;100783.03;5069204;28;1088;-40
2022/07/29 05:13:17;;;;;;;;;;;;;;;17.89;64.40;100783.16;5064826;28;1127;-38
2022/07/29 05:15:43;;;;;;;;;;;;;;;17.85;64.61;100790.53;5075171;28;1194;-40
2022/07/29 05:18:08;;;;;;;;;;;;;;;17.82;65.10;100788.13;5071651;28;2374;-42
2022/07/29 05:20:34;;;;;;;;;;;;;;;17.79;65.02;100788.34;5063547;28;1167;-43
2022/07/29 05:23:00;;;;;;;;;;;;;;;17.87;65.10;100787.75;5074167;28;1005;-43
2022/07/29 05:25:25;;;;;;;;;;;;;;;17.84;65.12;100788.00;5073822;28;1099;-42
2022/07/29 05:27:50;;;;;;;;;;;;;;;17.81;65.60;100786.44;5069738;28;1064;-43
2022/07/29 05:30:16;;;;;;;;;;;;;;;17.78;65.47;100784.00;5064128;28;1001;-43
2022/07/29 05:32:41;;;;;;;;;;;;;;;17.95;65.17;100781.84;5063812;28;989;-43
2022/07/29 05:35:07;;;;;;;;;;;;;;;18.21;66.88;100789.63;5069688;28;1048;-43
2022/07/29 05:37:32;;;;;;;;;;;;;;;21.37;56.03;100789.63;5066752;28;1051;-42
2022/07/29 05:39:58;;;;;;;;;;;;;;;23.26;51.12;100795.72;5070146;28;1905;-43
2022/07/29 05:42:24;;;;;;;;;;;;;;;24.24;48.39;100792.97;5072349;28;1001;-41
2022/07/29 05:44:49;;;;;;;;;;;;;;;24.78;47.10;100794.47;5070829;28;984;-42
2022/07/29 05:47:14;;;;;;;;;;;;;;;25.14;47.24;100800.59;5073876;28;977;-42
2022/07/29 05:49:39;;;;;;;;;;;;;;;25.44;46.26;100798.22;5070118;28;1203;-43
2022/07/29 05:52:05;;;;;;;;;;;;;;;25.53;46.05;100799.88;5074991;28;1262;-44
2022/07/29 05:54:30;;;;;;;;;;;;;;;25.71;45.64;100796.16;5075323;28;1158;-43
2022/07/29 05:56:55;;;;;;;;;;;;;;;25.58;47.56;100803.88;5062848;28;1064;-45
2022/07/29 05:59:21;;;;;;;;;;;;;;;25.54;48.92;100806.94;5070409;28;1965;-43
2022/07/29 06:01:46;;;;;;;;;;;;;;;25.74;46.60;100803.88;5063706;28;1182;-43
2022/07/29 06:04:11;;;;;;;;;;;;;;;25.97;47.86;100807.69;5068643;28;969;-43
2022/07/29 06:06:37;;;;;;;;;;;;;;;21.47;56.17;100793.13;5066562;28;1171;-40
2022/07/29 06:09:02;;;;;;;;;;;;;;;20.51;58.61;100800.81;5072814;28;1438;-42
2022/07/29 06:11:27;;;;;;;;;;;;;;;20.15;59.25;100800.44;5071882;28;1140;-39
2022/07/29 06:13:53;;;;;;;;;;;;;;;20.82;63.71;100805.22;5069021;28;885;-39
2022/07/29 06:16:18;;;;;;;;;;;;;;;23.57;51.66;100810.59;5072323;28;988;-37
2022/07/29 06:18:43;;;;;;;;;;;;;;;21.05;57.08;100799.66;5067736;28;1914;-42
2022/07/29 06:21:09;;;;;;;;;;;;;;;20.38;58.62;100803.75;5064872;28;1029;-41
2022/07/29 06:23:35;;;;;;;;;;;;;;;20.08;58.92;100800.13;5068055;28;1056;-41
2022/07/29 06:26:00;;;;;;;;;;;;;;;19.98;59.25;100800.06;5078341;28;1199;-43
2022/07/29 06:28:26;;;;;;;;;;;;;;;21.71;59.60;100796.31;5068882;28;988;-43
2022/07/29 06:30:51;;;;;;;;;;;;;;;24.22;49.51;100795.00;5076910;28;950;-43
2022/07/29 06:33:17;;;;;;;;;;;;;;;25.46;47.46;100806.94;5072281;28;1075;-38
2022/07/29 06:35:43;;;;;;;;;;;;;;;25.86;49.55;100793.56;5069776;28;921;-39
2022/07/29 06:38:09;;;;;;;;;;;;;;;26.33;44.48;100801.00;5075778;28;1905;-39
2022/07/29 06:43:18;;;;;;;;;;;;;;;26.78;43.98;100796.69;5067600;28;938;-42
2022/07/29 06:45:43;;;;;;;;;;;;;;;26.80;43.03;100803.75;5067721;28;1157;-41
2022/07/29 06:48:09;;;;;;;;;;;;;;;27.05;44.79;100804.44;5074841;28;1147;-42
2022/07/29 06:50:34;;;;;;;;;;;;;;;26.90;42.84;100805.22;5063862;28;970;-40
2022/07/29 06:52:59;;;;;;;;;;;;;;;26.97;43.11;100797.22;5078739;28;1112;-43
2022/07/29 06:55:25;;;;;;;;;;;;;;;27.17;45.07;100793.22;5062384;28;973;-41
2022/07/29 06:57:51;;;;;;;;;;;;;;;27.41;42.52;100792.13;5075249;28;1138;-41
2022/07/29 07:00:16;;;;;;;;;;;;;;;27.10;43.75;100791.25;5069965;28;1886;-41
2022/07/29 07:02:41;;;;;;;;;;;;;;;27.32;42.20;100796.78;5074538;28;965;-42
2022/07/29 07:05:07;;;;;;;;;;;;;;;27.36;42.47;100789.16;5076032;28;1144;-42
2022/07/29 07:07:32;;;;;;;;;;;;;;;27.27;45.04;100785.69;5070109;28;1013;-43
2022/07/29 07:09:57;;;;;;;;;;;;;;;27.37;41.66;100790.84;5066530;28;1136;-41
2022/07/29 07:12:22;;;;;;;;;;;;;;;27.42;42.28;100785.72;5073352;28;958;-39
2022/07/29 07:14:48;;;;;;;;;;;;;;;27.57;42.31;100791.16;5065774;28;1214;-41
2022/07/29 07:17:13;;;;;;;;;;;;;;;27.59;41.06;100793.66;5069752;28;1092;-43
2022/07/29 07:19:38;;;;;;;;;;;;;;;27.47;44.55;100796.81;5068992;28;1910;-43
2022/07/29 07:22:04;;;;;;;;;;;;;;;23.34;52.34;100789.56;5071433;28;1325;-41
2022/07/29 07:24:29;;;;;;;;;;;;;;;22.02;55.26;100796.13;5071303;28;985;-41
2022/07/29 07:26:55;;;;;;;;;;;;;;;23.88;55.46;100785.06;5058887;28;997;-40
2022/07/29 07:29:20;;;;;;;;;;;;;;;25.28;48.03;100793.66;5062212;28;989;-43
2022/07/29 07:31:45;;;;;;;;;;;;;;;22.14;55.13;100794.91;5072381;28;969;-42
2022/07/29 07:34:10;;;;;;;;;;;;;;;21.54;56.56;100788.03;5073998;28;950;-41
2022/07/29 07:36:36;;;;;;;;;;;;;;;23.17;56.28;100799.34;5067475;28;969;-42
2022/07/29 07:39:02;;;;;;;;;;;;;;;25.50;48.29;100794.81;5072771;28;1894;-43
2022/07/29 07:41:27;;;;;;;;;;;;;;;21.86;55.87;100794.91;5068916;28;920;-41
2022/07/29 07:43:52;;;;;;;;;;;;;;;23.56;54.80;100808.88;5065332;28;1048;-42
2022/07/29 07:46:18;;;;;;;;;;;;;;;25.13;48.63;100806.97;5071409;28;988;-43
2022/07/29 07:48:43;;;;;;;;;;;;;;;21.81;56.42;100804.34;5071451;28;1064;-42
2022/07/29 07:51:08;;;;;;;;;;;;;;;23.47;56.04;100811.50;5065627;28;1155;-44
2022/07/29 07:53:33;;;;;;;;;;;;;;;25.40;48.18;100813.00;5068204;28;1017;-43
2022/07/29 07:55:59;;;;;;;;;;;;;;;21.96;55.91;100800.22;5042187;28;1136;-41
2022/07/29 07:58:24;;;;;;;;;;;;;;;24.14;53.38;100806.50;5066411;28;1973;-41
2022/07/29 08:00:49;;;;;;;;;;;;;;;24.24;50.42;100806.41;5046024;28;1151;-41
2022/07/29 08:03:15;;;;;;;;;;;;;;;21.80;56.74;100800.84;5069891;28;872;-43
2022/07/29 08:05:40;;;;;;;;;;;;;;;23.78;55.06;100799.47;5070757;28;1255;-38
2022/07/29 08:08:05;;;;;;;;;;;;;;;24.46;49.90;100801.44;5068648;28;985;-39
2022/07/29 08:13:14;;;;;;;;;;;;;;;24.76;50.34;100803.69;5072232;28;1039;-39
2022/07/29 08:15:41;;;;;;;;;;;;;;;22.98;53.26;100806.56;5069271;28;899;-36
2022/07/29 08:18:06;;;;;;;;;;;;;;;22.15;62.06;100809.16;5068651;28;1977;-37
2022/07/29 08:20:35;;;;;;;;;;;;;;;25.15;49.02;100807.63;5061696;28;1438;-38
2022/07/29 08:23:00;;;;;;;;;;;;;;;22.45;55.15;100807.19;5075669;28;941;-41
2022/07/29 08:25:25;;;;;;;;;;;;;;;22.11;62.01;100808.63;5065831;28;991;-41
2022/07/29 08:27:51;;;;;;;;;;;;;;;25.09;49.14;100808.31;5075274;28;1024;-37
2022/07/29 08:30:16;;;;;;;;;;;;;;;22.31;55.41;100811.19;5069567;28;1008;-37
2022/07/29 08:32:41;;;;;;;;;;;;;;;21.25;59.70;100810.34;5064300;28;1104;-37
2022/07/29 08:35:07;;;;;;;;;;;;;;;24.38;51.87;100806.81;5070476;28;1059;-34
2022/07/29 08:37:32;;;;;;;;;;;;;;;22.87;53.38;100802.28;5072908;28;1148;-39
2022/07/29 08:39:58;;;;;;;;;;;;;;;21.31;57.36;100806.25;5064644;28;1902;-40
2022/07/29 08:42:23;;;;;;;;;;;;;;;23.95;52.93;100799.56;5064565;28;1087;-38
2022/07/29 08:44:48;;;;;;;;;;;;;;;23.62;51.54;100797.53;5071226;28;1008;-42
2022/07/29 08:47:14;;;;;;;;;;;;;;;21.59;56.76;100796.47;5069209;28;934;-43
2022/07/29 08:49:39;;;;;;;;;;;;;;;23.69;54.25;100795.06;5063215;28;946;-39
2022/07/29 08:52:04;;;;;;;;;;;;;;;24.17;50.30;100800.84;5069335;28;869;-38
2022/07/29 08:54:30;;;;;;;;;;;;;;;21.96;55.62;100785.97;5049188;28;982;-37
2022/07/29 08:56:55;;;;;;;;;;;;;;;22.32;60.40;100787.94;5054944;28;1001;-40
2022/07/29 08:59:23;;;;;;;;;;;;;;;25.28;47.75;100782.88;5064002;28;1967;-38
2022/07/29 09:01:48;;;;;;;;;;;;;;;22.46;54.47;100775.84;5054079;28;1010;-39
2022/07/29 09:04:14;;;;;;;;;;;;;;;21.96;60.55;100781.47;5056000;28;1016;-41
2022/07/29 09:06:41;;;;;;;;;;;;;;;24.96;48.58;100780.03;5063586;28;1147;-42
2022/07/29 09:09:07;;;;;;;;;;;;;;;22.77;53.48;100780.06;5066782;28;1183;-37
2022/07/29 09:11:32;;;;;;;;;;;;;;;21.74;56.79;100774.59;5072900;28;926;-39
2022/07/29 09:13:58;;;;;;;;;;;;;;;24.62;49.77;100781.00;5047135;28;1087;-40
2022/07/29 09:16:23;;;;;;;;;;;;;;;23.31;51.67;100774.63;5069274;28;837;-36
2022/07/29 09:18:48;;;;;;;;;;;;;;;21.69;55.89;100768.88;5061336;28;1913;-39
2022/07/29 09:24:08;;;;;;;;;;;;;;;25.43;47.26;100765.03;5064193;28;1069;-41
2022/07/29 09:26:35;;;;;;;;;;;;;;;21.89;55.07;100757.09;5065393;28;1057;-37
2022/07/29 09:29:01;;;;;;;;;;;;;;;23.30;55.80;100761.38;5069598;28;1088;-33
2022/07/29 09:31:31;;;;;;;;;;;;;;;25.41;47.72;100758.97;5054504;28;1064;-35
2022/07/29 09:33:57;;;;;;;;;;;;;;;22.08;54.76;100749.13;5069984;28;1017;-37
2022/07/29 09:36:23;;;;;;;;;;;;;;;22.16;60.20;100759.94;5064390;28;1139;-40
2022/07/29 09:38:56;;;;;;;;;;;;;;;25.03;47.69;100759.53;5067568;28;1968;-43
2022/07/29 09:41:22;;;;;;;;;;;;;;;22.62;53.50;100757.28;5070976;28;1115;-36
2022/07/29 09:43:56;;;;;;;;;;;;;;;23.90;53.91;100759.75;5048527;28;1002;-39
2022/07/29 09:46:22;;;;;;;;;;;;;;;24.88;48.39;100758.47;5068807;28;997;-38
2022/07/29 09:49:05;;;;;;;;;;;;;;;22.20;54.54;100753.31;5071307;28;1021;-38
2022/07/29 09:51:30;;;;;;;;;;;;;;;23.88;53.32;100751.00;5061969;28;1081;-37
2022/07/29 09:53:55;;;;;;;;;;;;;;;24.58;49.00;100757.13;5069284;28;1029;-38
2022/07/29 09:56:29;;;;;;;;;;;;;;;22.21;54.37;100751.44;5044665;28;1064;-39
2022/07/29 09:59:05;;;;;;;;;;;;;;;24.50;50.51;100758.94;5039448;28;1978;-41
2022/07/29 10:01:30;;;;;;;;;;;;;;;23.56;51.23;100747.97;5068673;28;933;-39
2022/07/29 10:03:55;;;;;;;;;;;;;;;21.86;55.51;100751.19;5059989;28;962;-41
2022/07/29 10:06:20;;;;;;;;;;;;;;;24.52;50.39;100757.78;5075261;28;1171;-37
2022/07/29 10:08:46;;;;;;;;;;;;;;;23.22;52.39;100752.25;5067795;28;1029;-42
2022/07/29 10:11:15;;;;;;;;;;;;;;;22.04;58.92;100750.44;5066671;28;949;-39
2022/07/29 10:13:40;;;;;;;;;;;;;;;24.96;48.58;100752.31;5069698;28;1021;-38
2022/07/29 10:16:06;;;;;;;;;;;;;;;22.93;53.28;100745.34;5065522;28;1040;-38
2022/07/29 10:18:31;;;;;;;;;;;;;;;21.89;55.85;100756.25;5070291;28;1906;-39
2022/07/29 10:20:56;;;;;;;;;;;;;;;24.40;50.93;100759.09;5068282;28;1179;-41
2022/07/29 10:23:21;;;;;;;;;;;;;;;23.44;51.52;100751.94;5047046;28;993;-40
2022/07/29 10:25:47;;;;;;;;;;;;;;;21.80;55.72;100754.47;5054974;28;1021;-39
2022/07/29 10:28:12;;;;;;;;;;;;;;;22.80;56.91;100756.47;5043693;28;998;-36
2022/07/29 10:30:39;;;;;;;;;;;;;;;25.42;46.60;100739.09;5068937;28;965;-40
2022/07/29 10:33:14;;;;;;;;;;;;;;;22.30;53.92;100736.31;5071812;28;1235;-42
2022/07/29 10:35:43;;;;;;;;;;;;;;;21.85;60.04;100738.81;5064575;28;1476;-42
2022/07/29 10:38:08;;;;;;;;;;;;;;;24.93;47.86;100745.41;5071315;28;1897;-40
2022/07/29 10:43:24;;;;;;;;;;;;;;;27.06;41.33;100745.91;5064128;28;1113;-40
2022/07/29 10:45:49;;;;;;;;;;;;;;;27.04;41.34;100746.09;5054442;28;1120;-41
2022/07/29 10:48:14;;;;;;;;;;;;;;;26.71;44.03;100746.31;5051025;28;1001;-39
2022/07/29 10:50:59;;;;;;;;;;;;;;;27.01;39.37;100752.66;5070455;28;993;-41
2022/07/29 10:53:25;;;;;;;;;;;;;;;27.30;39.81;100758.31;5068413;28;990;-41
2022/07/29 10:55:51;;;;;;;;;;;;;;;27.18;43.00;100746.28;5045303;28;1206;-39
2022/07/29 10:58:17;;;;;;;;;;;;;;;27.45;39.41;100754.78;5068148;28;1902;-41
2022/07/29 11:00:43;;;;;;;;;;;;;;;27.24;40.80;100746.38;5069280;28;1215;-41
2022/07/29 11:03:08;;;;;;;;;;;;;;;27.61;40.08;100753.78;5062848;28;1176;-40
2022/07/29 11:05:53;;;;;;;;;;;;;;;27.61;38.80;100753.78;5061497;28;973;-40
2022/07/29 11:08:21;;;;;;;;;;;;;;;27.35;41.06;100746.97;5064774;28;1065;-38
2022/07/29 11:10:47;;;;;;;;;;;;;;;28.18;37.36;100753.25;5069536;28;1239;-35
2022/07/29 11:13:12;;;;;;;;;;;;;;;27.98;38.72;100752.00;5045456;28;1250;-37
2022/07/29 11:15:53;;;;;;;;;;;;;;;27.76;39.68;100740.28;5055344;28;1045;-38
2022/07/29 11:18:19;;;;;;;;;;;;;;;27.95;38.23;100749.69;5068539;28;1963;-39
2022/07/29 11:20:47;;;;;;;;;;;;;;;27.49;39.88;100748.00;5063030;28;1198;-39
2022/07/29 11:23:31;;;;;;;;;;;;;;;27.81;40.65;100745.13;5077706;28;1040;-40
2022/07/29 11:28:55;;;;;;;;;;;;;;;27.63;39.73;100741.75;5072315;28;870;-39
2022/07/29 11:31:41;;;;;;;;;;;;;;;27.71;41.38;100737.31;5064278;28;1056;-41
2022/07/29 11:34:15;;;;;;;;;;;;;;;28.17;38.03;100733.50;5070625;28;965;-39
2022/07/29 11:36:59;;;;;;;;;;;;;;;27.72;39.56;100730.88;5077068;28;1128;-38
2022/07/29 11:39:25;;;;;;;;;;;;;;;27.55;40.90;100743.69;5074513;28;1902;-41
2022/07/29 11:41:50;;;;;;;;;;;;;;;27.81;38.35;100737.03;5067884;28;977;-39
2022/07/29 11:44:16;;;;;;;;;;;;;;;27.63;40.28;100730.09;5070044;28;1036;-39
2022/07/29 11:46:46;;;;;;;;;;;;;;;27.94;38.15;100733.66;5072568;28;1108;-41
2022/07/29 11:49:11;;;;;;;;;;;;;;;28.02;38.40;100733.53;5065490;28;1033;-39
2022/07/29 11:51:37;;;;;;;;;;;;;;;27.56;41.70;100732.72;5051916;28;973;-39
2022/07/29 11:54:02;;;;;;;;;;;;;;;28.27;37.65;100725.09;5070166;28;1056;-29
2022/07/29 11:56:27;;;;;;;;;;;;;;;27.78;39.80;100721.19;5067821;28;1026;-29
2022/07/29 11:59:05;;;;;;;;;;;;;;;28.20;39.61;100725.00;5045040;28;1898;-30
2022/07/29 12:01:31;;;;;;;;;;;;;;;28.02;38.50;100714.63;5066477;28;1164;-27
2022/07/29 12:04:03;;;;;;;;;;;;;;;27.57;40.43;100726.28;5070267;28;1187;-31
2022/07/29 12:06:29;;;;;;;;;;;;;;;28.20;37.95;100718.75;5070417;28;1088;-28
2022/07/29 12:08:54;;;;;;;;;;;;;;;27.95;38.72;100714.53;5067060;28;1068;-29
2022/07/29 12:11:20;;;;;;;;;;;;;;;27.71;41.22;100703.00;5068119;28;1104;-28
2022/07/29 12:13:45;;;;;;;;;;;;;;;28.28;38.30;100709.69;5059232;28;1218;-28
2022/07/29 12:16:11;;;;;;;;;;;;;;;27.82;40.25;100714.38;5073456;28;953;-28
2022/07/29 12:18:36;;;;;;;;;;;;;;;28.51;37.55;100712.22;5063834;28;1961;-29
2022/07/29 12:21:04;;;;;;;;;;;;;;;28.24;39.20;100706.53;5070689;28;1404;-40
2022/07/29 12:23:30;;;;;;;;;;;;;;;27.72;41.79;100704.69;5070480;28;953;-39
2022/07/29 12:25:55;;;;;;;;;;;;;;;28.30;38.50;100694.09;5075503;28;1005;-38
2022/07/29 12:28:21;;;;;;;;;;;;;;;27.86;40.01;100688.66;5068681;28;1092;-40
2022/07/29 12:30:51;;;;;;;;;;;;;;;28.16;40.49;100685.03;5062656;28;1036;-38
2022/07/29 12:33:16;;;;;;;;;;;;;;;28.08;38.48;100689.50;5068722;28;1271;-37
2022/07/29 12:35:42;;;;;;;;;;;;;;;27.72;40.63;100690.34;5070352;28;1095;-40
2022/07/29 12:38:09;;;;;;;;;;;;;;;28.07;38.46;100687.00;5050647;28;1021;-41
2022/07/29 12:40:34;;;;;;;;;;;;;;;27.92;39.29;100687.88;5047255;28;1937;-40
2022/07/29 12:43:15;;;;;;;;;;;;;;;27.67;41.51;100692.72;5069839;28;1052;-39
2022/07/29 12:45:41;;;;;;;;;;;;;;;28.40;36.77;100683.81;5072777;28;1218;-39
2022/07/29 12:48:08;;;;;;;;;;;;;;;28.04;39.02;100684.69;5065506;28;1037;-39
2022/07/29 12:50:34;;;;;;;;;;;;;;;28.63;37.53;100680.06;5076439;28;1048;-38
2022/07/29 12:53:12;;;;;;;;;;;;;;;25.37;43.91;100671.50;5064372;28;929;-37
2022/07/29 12:55:38;;;;;;;;;;;;;;;23.09;51.23;100679.38;5064128;28;1186;-40
2022/07/29 12:58:03;;;;;;;;;;;;;;;25.85;45.25;100669.78;5071375;28;1064;-39
2022/07/29 13:00:28;;;;;;;;;;;;;;;24.73;47.30;100672.22;5045853;28;1963;-40